Time;durP1;ratioP1;P1;durP2;ratioP2;P2;SDS_P1;SDS_P2;PMS_P1;PMS_P2;Temp;Humidity;BMP_temperature;BMP_pressure;BME280_temperature;BME280_humidity;BME280_pressure;Samples;Min_cycle;Max_cycle;Signal;HPM_P1;HPM_P2
2022/03/24 00:02:16;;;;;;;71.50;36.80;;;6.90;92.70;;;;;;5114956;28;20207;-69
2022/03/24 00:04:43;;;;;;;72.13;36.80;;;6.80;92.60;;;;;;5115022;28;20201;-69
2022/03/24 00:07:11;;;;;;;70.80;37.17;;;6.80;92.50;;;;;;5114917;28;20246;-69
2022/03/24 00:09:38;;;;;;;75.07;37.57;;;6.80;92.50;;;;;;5115055;28;20188;-68
2022/03/24 00:12:08;;;;;;;73.23;37.87;;;6.80;92.70;;;;;;5114790;28;20219;-68
2022/03/24 00:14:36;;;;;;;75.27;39.30;;;6.70;92.90;;;;;;5115041;27;20598;-68
2022/03/24 00:17:03;;;;;;;70.97;37.67;;;6.70;93.00;;;;;;5114702;28;20196;-69
2022/03/24 00:19:30;;;;;;;75.90;39.13;;;6.60;93.00;;;;;;5115015;28;20651;-66
2022/03/24 00:21:57;;;;;;;76.67;40.90;;;6.50;93.10;;;;;;5114436;28;20609;-68
2022/03/24 00:24:25;;;;;;;73.33;40.30;;;6.50;93.10;;;;;;5114632;28;20203;-68
2022/03/24 00:26:52;;;;;;;73.17;39.37;;;6.40;93.20;;;;;;5114765;28;20570;-68
2022/03/24 00:29:21;;;;;;;73.53;39.40;;;6.30;93.30;;;;;;5114940;28;20207;-68
2022/03/24 00:31:48;;;;;;;72.57;38.17;;;6.30;93.30;;;;;;5114664;28;20200;-68
2022/03/24 00:34:15;;;;;;;75.93;38.30;;;6.30;93.50;;;;;;5114396;28;20219;-68
2022/03/24 00:36:42;;;;;;;74.83;38.60;;;6.20;93.40;;;;;;5114396;28;20203;-68
2022/03/24 00:39:09;;;;;;;74.10;37.63;;;6.20;93.50;;;;;;5114455;28;20206;-68
2022/03/24 00:41:36;;;;;;;74.17;39.97;;;6.10;93.40;;;;;;5114444;28;20213;-68
2022/03/24 00:44:04;;;;;;;78.60;38.23;;;6.10;93.50;;;;;;5114389;28;20211;-67
2022/03/24 00:46:33;;;;;;;75.57;37.37;;;6.00;93.60;;;;;;5114270;28;20203;-67
2022/03/24 00:49:00;;;;;;;72.23;36.47;;;6.00;93.60;;;;;;5114420;28;20244;-68
2022/03/24 00:51:28;;;;;;;68.93;34.23;;;6.00;93.80;;;;;;5114480;28;20571;-68
2022/03/24 00:53:55;;;;;;;65.63;35.37;;;5.90;93.70;;;;;;5114191;28;20219;-69
2022/03/24 00:56:23;;;;;;;62.67;33.33;;;5.90;93.80;;;;;;5114335;28;20219;-68
2022/03/24 00:58:50;;;;;;;66.77;33.13;;;5.90;93.90;;;;;;5113792;28;20204;-68
2022/03/24 01:01:17;;;;;;;67.27;34.23;;;5.90;94.00;;;;;;5114279;27;20675;-68
2022/03/24 01:03:46;;;;;;;69.80;34.73;;;5.90;94.20;;;;;;5113832;28;20203;-67
2022/03/24 01:06:16;;;;;;;71.37;34.53;;;5.90;94.40;;;;;;5113936;28;20207;-67
2022/03/24 01:08:44;;;;;;;67.93;34.70;;;5.90;94.40;;;;;;5113999;27;20231;-67
2022/03/24 01:11:11;;;;;;;67.90;34.20;;;5.90;94.40;;;;;;5114443;28;20234;-68
2022/03/24 01:13:38;;;;;;;54.23;28.60;;;5.90;94.40;;;;;;5112917;28;20231;-67
2022/03/24 01:16:07;;;;;;;54.90;26.67;;;5.90;94.50;;;;;;5113750;28;20203;-68
2022/03/24 01:18:34;;;;;;;52.73;25.83;;;5.90;94.50;;;;;;5113557;28;20206;-69
2022/03/24 01:21:03;;;;;;;46.73;23.47;;;5.90;94.40;;;;;;5113679;28;20207;-68
2022/03/24 01:23:31;;;;;;;46.00;23.13;;;6.00;94.40;;;;;;5113771;28;20279;-69
2022/03/24 01:25:59;;;;;;;45.50;22.57;;;6.00;94.40;;;;;;5113709;28;20728;-68
2022/03/24 01:28:27;;;;;;;43.30;22.17;;;6.00;94.40;;;;;;5113655;28;20207;-68
2022/03/24 01:30:54;;;;;;;47.73;22.67;;;6.00;94.30;;;;;;5113504;28;20199;-68
2022/03/24 01:33:22;;;;;;;46.43;23.37;;;6.00;94.30;;;;;;5113260;28;20219;-68
2022/03/24 01:35:50;;;;;;;45.70;22.30;;;6.00;94.30;;;;;;5113042;28;20260;-69
2022/03/24 01:38:19;;;;;;;44.17;22.57;;;6.10;94.30;;;;;;5113336;28;20210;-68
2022/03/24 01:40:46;;;;;;;41.67;21.57;;;6.10;94.20;;;;;;5113125;28;20243;-68
2022/03/24 01:43:14;;;;;;;44.23;22.70;;;6.10;94.20;;;;;;5113649;28;20203;-68
2022/03/24 01:45:42;;;;;;;49.60;23.47;;;6.10;94.30;;;;;;5113421;28;20621;-67
2022/03/24 01:48:09;;;;;;;46.43;23.73;;;6.10;94.20;;;;;;5113384;27;20255;-69
2022/03/24 01:50:37;;;;;;;48.53;22.83;;;6.10;94.20;;;;;;5113321;28;20210;-68
2022/03/24 01:53:05;;;;;;;50.93;25.33;;;6.00;94.30;;;;;;5112986;28;20225;-68
2022/03/24 01:55:34;;;;;;;45.43;22.53;;;6.00;94.40;;;;;;5112749;28;20268;-68
2022/03/24 01:58:03;;;;;;;45.33;21.47;;;5.90;94.40;;;;;;5113324;28;20612;-70
2022/03/24 02:00:31;;;;;;;45.90;22.57;;;5.90;94.50;;;;;;5112917;28;20222;-68
2022/03/24 02:03:04;;;;;;;38.07;19.23;;;5.90;94.60;;;;;;5112764;28;20210;-68
2022/03/24 02:05:32;;;;;;;41.80;21.27;;;5.80;94.60;;;;;;5112978;28;20662;-68
2022/03/24 02:08:02;;;;;;;37.67;19.47;;;5.80;94.70;;;;;;5112708;28;20710;-69
2022/03/24 02:10:29;;;;;;;35.67;18.93;;;5.80;94.70;;;;;;5112794;28;20213;-68
2022/03/24 02:12:59;;;;;;;32.30;18.23;;;5.80;94.70;;;;;;5112602;28;20207;-68
2022/03/24 02:15:27;;;;;;;33.77;16.87;;;5.80;94.60;;;;;;5112414;28;20233;-69
2022/03/24 02:17:55;;;;;;;32.80;17.33;;;5.80;94.60;;;;;;5113004;28;20674;-68
2022/03/24 02:20:24;;;;;;;33.57;17.33;;;5.80;94.60;;;;;;5112974;28;20235;-68
2022/03/24 02:22:53;;;;;;;31.87;15.80;;;5.80;94.70;;;;;;5112609;28;20301;-68
2022/03/24 02:25:22;;;;;;;35.90;16.73;;;5.80;94.70;;;;;;5111650;28;20207;-68
2022/03/24 02:27:55;;;;;;;30.13;15.80;;;5.80;94.70;;;;;;5112872;28;20649;-68
2022/03/24 02:30:24;;;;;;;31.17;17.00;;;5.80;94.80;;;;;;5112503;28;20184;-69
2022/03/24 02:32:52;;;;;;;32.80;16.47;;;5.70;94.90;;;;;;5112690;28;20287;-68
2022/03/24 02:35:19;;;;;;;29.37;16.30;;;5.70;94.90;;;;;;5112654;28;20208;-68
2022/03/24 02:37:47;;;;;;;31.57;16.07;;;5.70;95.00;;;;;;5112550;28;20416;-67
2022/03/24 02:40:16;;;;;;;30.47;15.47;;;5.70;95.00;;;;;;5112409;28;20213;-69
2022/03/24 02:42:45;;;;;;;30.90;16.07;;;5.70;95.00;;;;;;5112490;28;20210;-67
2022/03/24 02:45:13;;;;;;;32.90;16.67;;;5.70;95.00;;;;;;5112650;28;20272;-68
2022/03/24 02:47:40;;;;;;;34.70;17.23;;;5.70;95.10;;;;;;5112346;28;20664;-68
2022/03/24 02:50:09;;;;;;;38.50;18.07;;;5.70;95.20;;;;;;5112242;28;20203;-68
2022/03/24 02:52:36;;;;;;;34.43;17.37;;;5.70;95.30;;;;;;5112347;28;20286;-68
2022/03/24 02:55:03;;;;;;;34.33;17.23;;;5.60;95.30;;;;;;5111995;28;20231;-68
2022/03/24 02:57:33;;;;;;;36.57;17.57;;;5.60;95.30;;;;;;5112048;28;20267;-68
2022/03/24 03:00:00;;;;;;;38.43;18.33;;;5.60;95.40;;;;;;5112212;28;20199;-67
2022/03/24 03:02:28;;;;;;;38.43;18.77;;;5.60;95.40;;;;;;5112338;28;20637;-68
2022/03/24 03:04:55;;;;;;;36.20;17.63;;;5.50;95.50;;;;;;5112043;28;20206;-68
2022/03/24 03:07:23;;;;;;;39.87;19.53;;;5.40;95.60;;;;;;5111996;28;20596;-68
2022/03/24 03:09:51;;;;;;;36.47;19.33;;;5.40;96.00;;;;;;5112347;28;20207;-68
2022/03/24 03:12:18;;;;;;;37.73;19.00;;;5.40;95.70;;;;;;5111833;28;20207;-68
2022/03/24 03:14:47;;;;;;;38.13;18.93;;;5.40;95.70;;;;;;5112304;28;20710;-69
2022/03/24 03:17:16;;;;;;;40.67;18.73;;;5.40;95.90;;;;;;5111983;28;20203;-69
2022/03/24 03:19:45;;;;;;;39.17;18.40;;;5.40;95.90;;;;;;5112048;28;20253;-68
2022/03/24 03:22:13;;;;;;;39.63;19.53;;;5.40;96.00;;;;;;5112232;28;20203;-69
2022/03/24 03:24:40;;;;;;;43.73;20.37;;;5.30;96.00;;;;;;5112127;28;20206;-69
2022/03/24 03:27:08;;;;;;;36.60;20.03;;;5.30;96.00;;;;;;5111873;28;20401;-69
2022/03/24 03:29:35;;;;;;;39.73;20.80;;;5.30;96.10;;;;;;5112108;28;20210;-69
2022/03/24 03:32:05;;;;;;;40.60;20.57;;;5.30;96.20;;;;;;5112152;28;20208;-68
2022/03/24 03:34:32;;;;;;;43.27;20.87;;;5.30;96.20;;;;;;5111600;28;20238;-69
2022/03/24 03:37:00;;;;;;;39.80;21.20;;;5.30;96.20;;;;;;5114570;28;20214;-68
2022/03/24 03:39:28;;;;;;;42.13;22.00;;;5.20;96.30;;;;;;5115842;28;20203;-68
2022/03/24 03:41:57;;;;;;;41.00;20.67;;;5.20;96.40;;;;;;5115718;28;20471;-68
2022/03/24 03:44:24;;;;;;;44.67;21.63;;;5.20;96.40;;;;;;5115752;28;20325;-69
2022/03/24 03:46:51;;;;;;;38.93;20.80;;;5.10;96.50;;;;;;5115786;28;20235;-69
2022/03/24 03:49:21;;;;;;;44.10;20.90;;;5.10;96.60;;;;;;5115296;28;20207;-67
2022/03/24 03:51:49;;;;;;;41.63;21.50;;;5.00;96.70;;;;;;5115442;28;20237;-69
2022/03/24 03:54:16;;;;;;;44.90;22.03;;;5.00;97.00;;;;;;5115079;28;20214;-68
2022/03/24 03:56:43;;;;;;;47.97;22.47;;;4.90;97.00;;;;;;5115603;28;20647;-69
2022/03/24 03:59:10;;;;;;;46.17;23.30;;;4.80;97.20;;;;;;5115257;28;20199;-68
2022/03/24 04:01:38;;;;;;;45.63;24.20;;;4.80;97.40;;;;;;5115236;28;20215;-68
2022/03/24 04:04:07;;;;;;;61.83;28.83;;;4.70;97.60;;;;;;5115370;28;20207;-67
2022/03/24 04:06:35;;;;;;;58.60;29.27;;;4.60;97.90;;;;;;5115026;28;20239;-69
2022/03/24 04:09:02;;;;;;;56.93;28.00;;;4.50;98.00;;;;;;5115400;28;20212;-68
2022/03/24 04:11:30;;;;;;;63.67;29.37;;;4.60;98.00;;;;;;5114832;28;20211;-68
2022/03/24 04:13:57;;;;;;;57.57;28.30;;;4.50;98.10;;;;;;5115027;28;20239;-68
2022/03/24 04:16:24;;;;;;;57.47;27.90;;;4.50;98.10;;;;;;5114954;28;20223;-68
2022/03/24 04:18:51;;;;;;;56.60;27.57;;;4.50;98.00;;;;;;5114880;28;20199;-68
2022/03/24 04:21:19;;;;;;;56.53;27.67;;;4.60;98.10;;;;;;5114696;28;20214;-70
2022/03/24 04:23:49;;;;;;;55.10;27.13;;;4.50;98.10;;;;;;5114825;28;20215;-68
2022/03/24 04:26:16;;;;;;;58.30;27.40;;;4.50;98.10;;;;;;5114885;28;20207;-68
2022/03/24 04:28:44;;;;;;;53.33;28.17;;;4.50;98.10;;;;;;5115016;28;20719;-69
2022/03/24 04:31:11;;;;;;;60.70;28.27;;;4.50;98.10;;;;;;5114545;28;20211;-68
2022/03/24 04:33:38;;;;;;;56.80;27.57;;;4.50;98.20;;;;;;5114918;28;20256;-69
2022/03/24 04:36:08;;;;;;;54.57;28.17;;;4.60;98.10;;;;;;5114461;27;20711;-68
2022/03/24 04:38:35;;;;;;;57.70;28.43;;;4.60;98.10;;;;;;5115116;28;20233;-67
2022/03/24 04:41:04;;;;;;;56.47;27.97;;;4.60;98.10;;;;;;5114477;28;20249;-68
2022/03/24 04:43:32;;;;;;;61.17;29.77;;;4.60;98.20;;;;;;5114359;28;20263;-68
2022/03/24 04:46:00;;;;;;;59.03;29.57;;;4.60;98.20;;;;;;5114659;28;20214;-69
2022/03/24 04:48:27;;;;;;;65.63;29.60;;;4.60;98.30;;;;;;5113415;28;20200;-68
2022/03/24 04:50:54;;;;;;;63.03;31.17;;;4.70;98.30;;;;;;5114556;28;20542;-69
2022/03/24 04:53:21;;;;;;;64.53;30.37;;;4.70;98.30;;;;;;5114090;28;20210;-67
2022/03/24 04:55:48;;;;;;;67.90;31.57;;;4.80;98.40;;;;;;5114435;28;20562;-68
2022/03/24 04:58:16;;;;;;;67.47;32.27;;;4.80;98.40;;;;;;5114293;28;20203;-68
2022/03/24 05:00:44;;;;;;;65.13;31.80;;;4.90;98.30;;;;;;5114330;28;20556;-67
2022/03/24 05:03:11;;;;;;;61.90;31.30;;;4.90;98.40;;;;;;5114236;28;20544;-67
2022/03/24 05:05:38;;;;;;;65.53;32.57;;;4.90;98.40;;;;;;5114006;28;20203;-68
2022/03/24 05:08:06;;;;;;;65.60;32.83;;;5.00;98.30;;;;;;5113595;28;20251;-69
2022/03/24 05:10:33;;;;;;;71.90;35.57;;;5.00;98.30;;;;;;5114148;28;20211;-69
2022/03/24 05:13:00;;;;;;;81.50;39.50;;;5.10;98.30;;;;;;5113788;28;20207;-68
2022/03/24 05:15:29;;;;;;;89.83;41.57;;;5.10;98.20;;;;;;5113986;28;20621;-68
2022/03/24 05:17:56;;;;;;;84.13;41.03;;;5.20;98.30;;;;;;5113649;28;20211;-69
2022/03/24 05:20:23;;;;;;;88.03;42.80;;;5.30;98.30;;;;;;5113792;28;20203;-69
2022/03/24 05:22:50;;;;;;;85.30;43.13;;;5.30;98.80;;;;;;5113843;28;20204;-68
2022/03/24 05:25:18;;;;;;;95.80;45.10;;;5.40;98.40;;;;;;5113347;28;20223;-67
2022/03/24 05:27:45;;;;;;;91.80;45.50;;;5.40;98.30;;;;;;5113685;28;20226;-68
2022/03/24 05:30:13;;;;;;;94.87;45.30;;;5.50;98.20;;;;;;5113489;28;20208;-69
2022/03/24 05:32:42;;;;;;;98.93;48.53;;;5.50;98.20;;;;;;5113644;28;20569;-68
2022/03/24 05:35:10;;;;;;;95.77;45.97;;;5.50;98.00;;;;;;5113116;28;20308;-68
2022/03/24 05:37:37;;;;;;;99.70;45.70;;;5.60;98.00;;;;;;5113267;28;20203;-69
2022/03/24 05:40:06;;;;;;;96.80;47.73;;;5.70;98.00;;;;;;5112882;28;20199;-67
2022/03/24 05:42:33;;;;;;;101.00;49.70;;;5.70;97.80;;;;;;5113114;28;20287;-67
2022/03/24 05:45:00;;;;;;;108.17;54.00;;;5.70;97.90;;;;;;5113196;28;20726;-68
2022/03/24 05:47:27;;;;;;;117.60;57.50;;;5.80;97.70;;;;;;5113033;28;20203;-68
2022/03/24 05:49:56;;;;;;;127.13;58.27;;;5.80;97.60;;;;;;5113230;28;20207;-69
2022/03/24 05:52:23;;;;;;;119.03;59.73;;;5.90;97.50;;;;;;5113299;28;20203;-69
2022/03/24 05:54:50;;;;;;;136.10;66.50;;;5.90;97.50;;;;;;5113073;28;20722;-68
2022/03/24 05:57:17;;;;;;;132.63;67.23;;;5.90;97.50;;;;;;5113105;28;20227;-69
2022/03/24 05:59:44;;;;;;;134.43;69.47;;;5.90;97.60;;;;;;5112796;28;20207;-68
2022/03/24 06:02:13;;;;;;;150.00;69.10;;;6.00;97.70;;;;;;5112661;28;20297;-69
2022/03/24 06:04:42;;;;;;;147.93;78.97;;;6.00;97.50;;;;;;5112730;28;20218;-68
2022/03/24 06:07:12;;;;;;;144.67;75.80;;;6.10;97.40;;;;;;5112635;28;20260;-68
2022/03/24 06:09:39;;;;;;;162.00;80.87;;;6.10;97.40;;;;;;5113057;28;20569;-68
2022/03/24 06:12:10;;;;;;;130.40;68.03;;;6.10;97.40;;;;;;5112769;28;20199;-68
2022/03/24 06:14:38;;;;;;;142.70;68.33;;;6.10;97.30;;;;;;5112561;28;20549;-67
2022/03/24 06:17:06;;;;;;;126.57;60.17;;;6.20;97.30;;;;;;5112348;28;20230;-67
2022/03/24 06:19:35;;;;;;;106.33;53.80;;;6.20;97.20;;;;;;5112846;28;20623;-69
2022/03/24 06:22:02;;;;;;;104.27;52.03;;;6.20;97.10;;;;;;5112431;28;20210;-68
2022/03/24 06:24:31;;;;;;;118.73;57.17;;;6.10;97.30;;;;;;5112816;28;20203;-69
2022/03/24 06:26:58;;;;;;;114.23;60.23;;;6.10;97.30;;;;;;5112462;28;20567;-67
2022/03/24 06:29:25;;;;;;;94.63;50.30;;;6.20;97.40;;;;;;5112366;28;20214;-68
2022/03/24 06:31:52;;;;;;;87.00;44.30;;;6.20;97.30;;;;;;5112537;28;20525;-68
2022/03/24 06:34:20;;;;;;;92.17;48.53;;;6.20;97.30;;;;;;5112375;28;20211;-69
2022/03/24 06:36:47;;;;;;;83.60;44.37;;;6.30;97.70;;;;;;5112167;28;20223;-68
2022/03/24 06:39:14;;;;;;;85.07;44.97;;;6.30;97.20;;;;;;5112228;28;20210;-68
2022/03/24 06:41:43;;;;;;;82.50;44.17;;;6.40;97.20;;;;;;5112277;28;20202;-68
2022/03/24 06:44:10;;;;;;;82.70;41.43;;;6.40;97.20;;;;;;5112097;28;20264;-68
2022/03/24 06:46:38;;;;;;;83.13;40.17;;;6.40;97.20;;;;;;5112161;28;20203;-69
2022/03/24 06:49:05;;;;;;;77.30;39.70;;;6.40;97.10;;;;;;5112102;28;20199;-69
2022/03/24 06:51:33;;;;;;;74.80;38.83;;;6.50;97.10;;;;;;5112186;28;20207;-68
2022/03/24 06:54:00;;;;;;;66.23;36.80;;;6.50;97.10;;;;;;5111883;28;20230;-68
2022/03/24 06:56:27;;;;;;;83.47;43.90;;;6.60;97.10;;;;;;5112302;28;20703;-69
2022/03/24 06:58:56;;;;;;;72.37;41.33;;;6.60;96.90;;;;;;5111915;28;20203;-68
2022/03/24 07:01:23;;;;;;;94.17;49.27;;;6.60;96.90;;;;;;5111958;28;20211;-67
2022/03/24 07:03:50;;;;;;;105.33;54.80;;;6.70;97.10;;;;;;5112138;28;20411;-67
2022/03/24 07:06:17;;;;;;;92.50;46.27;;;6.80;97.00;;;;;;5112410;28;20685;-68
2022/03/24 07:08:44;;;;;;;96.77;49.27;;;6.80;96.80;;;;;;5111815;28;20235;-68
2022/03/24 07:11:12;;;;;;;96.30;50.73;;;6.90;96.60;;;;;;5113573;28;20214;-70
2022/03/24 07:13:39;;;;;;;94.97;49.23;;;7.00;96.50;;;;;;5116037;28;20204;-68
2022/03/24 07:16:08;;;;;;;98.13;48.73;;;7.00;96.50;;;;;;5116155;28;20312;-68
2022/03/24 07:18:35;;;;;;;99.30;47.17;;;7.10;96.00;;;;;;5116228;28;20207;-69
2022/03/24 07:21:02;;;;;;;86.27;45.87;;;7.10;96.00;;;;;;5115891;28;20214;-68
2022/03/24 07:23:29;;;;;;;81.53;44.40;;;7.20;96.10;;;;;;5115743;28;20203;-69
2022/03/24 07:25:56;;;;;;;95.60;49.03;;;7.20;96.10;;;;;;5116008;28;20683;-69
2022/03/24 07:28:23;;;;;;;73.47;41.00;;;7.20;96.00;;;;;;5116117;28;20202;-68
2022/03/24 07:30:51;;;;;;;54.87;31.77;;;7.30;95.80;;;;;;5115979;28;20204;-68
2022/03/24 07:33:21;;;;;;;49.70;25.93;;;7.30;95.80;;;;;;5115722;28;20206;-69
2022/03/24 07:35:49;;;;;;;50.47;26.60;;;7.30;95.30;;;;;;5115655;28;20686;-68
2022/03/24 07:38:17;;;;;;;38.63;20.43;;;7.40;95.30;;;;;;5115875;28;20234;-68
2022/03/24 07:40:44;;;;;;;41.27;22.67;;;7.50;94.90;;;;;;5115491;28;20199;-68
2022/03/24 07:43:11;;;;;;;38.10;20.33;;;7.50;94.70;;;;;;5115589;28;20215;-69
2022/03/24 07:45:38;;;;;;;40.83;21.53;;;7.60;94.70;;;;;;5115787;28;20222;-69
2022/03/24 07:48:11;;;;;;;38.03;19.70;;;7.60;94.50;;;;;;5115403;28;20210;-68
2022/03/24 07:50:42;;;;;;;32.93;17.63;;;7.70;94.60;;;;;;5115470;28;20191;-70
2022/03/24 07:53:45;;;;;;;39.63;22.40;;;7.70;94.10;;;;;;5115699;28;20221;-69
2022/03/24 07:56:12;;;;;;;46.43;24.83;;;7.70;94.20;;;;;;5115616;28;20678;-69
2022/03/24 07:58:39;;;;;;;44.60;21.67;;;7.80;94.40;;;;;;5115436;28;20601;-68
2022/03/24 08:01:06;;;;;;;33.67;17.63;;;7.80;94.30;;;;;;5115470;28;20271;-68
2022/03/24 08:03:34;;;;;;;33.07;17.17;;;7.80;94.30;;;;;;5115470;28;20203;-67
2022/03/24 08:06:03;;;;;;;30.50;16.47;;;7.80;94.30;;;;;;5114943;28;20204;-69
2022/03/24 08:08:30;;;;;;;26.77;14.67;;;7.70;93.60;;;;;;5114881;28;20285;-69
2022/03/24 08:10:58;;;;;;;30.43;15.73;;;7.80;93.30;;;;;;5115162;28;20570;-68
2022/03/24 08:13:26;;;;;;;37.07;20.43;;;7.80;93.40;;;;;;5115014;28;20212;-67
2022/03/24 08:15:56;;;;;;;31.47;18.33;;;7.70;94.10;;;;;;5114613;28;20227;-67
2022/03/24 08:18:23;;;;;;;32.43;18.83;;;7.70;94.00;;;;;;5114910;28;20198;-68
2022/03/24 08:20:51;;;;;;;30.67;17.30;;;7.80;94.30;;;;;;5114756;28;20209;-68
2022/03/24 08:23:21;;;;;;;31.80;16.53;;;7.90;94.10;;;;;;5113843;28;20261;-69
2022/03/24 08:25:48;;;;;;;29.03;15.23;;;8.00;93.50;;;;;;5114986;28;20552;-68
2022/03/24 08:28:15;;;;;;;28.10;14.07;;;8.10;93.30;;;;;;5114559;28;20215;-67
2022/03/24 08:30:44;;;;;;;25.80;14.47;;;8.00;92.50;;;;;;5114673;28;20606;-69
2022/03/24 08:33:11;;;;;;;28.23;15.47;;;8.00;93.90;;;;;;5114898;28;20229;-68
2022/03/24 08:35:39;;;;;;;28.60;13.83;;;8.00;94.00;;;;;;5114565;28;20556;-68
2022/03/24 08:38:06;;;;;;;25.00;14.57;;;8.00;93.70;;;;;;5114702;28;20298;-68
2022/03/24 08:40:35;;;;;;;24.37;14.53;;;8.00;93.60;;;;;;5114503;28;20210;-68
2022/03/24 08:43:03;;;;;;;27.73;15.57;;;8.00;93.80;;;;;;5114621;28;20691;-68
2022/03/24 08:45:31;;;;;;;21.13;13.40;;;8.10;94.10;;;;;;5114356;28;20207;-68
2022/03/24 08:47:58;;;;;;;24.70;13.30;;;8.20;93.40;;;;;;5114473;28;20555;-69
2022/03/24 08:50:26;;;;;;;22.97;13.30;;;8.30;92.40;;;;;;5114260;28;20203;-68
2022/03/24 08:52:53;;;;;;;23.83;12.97;;;8.30;92.00;;;;;;5114419;28;20214;-68
2022/03/24 08:55:20;;;;;;;26.57;14.53;;;8.40;92.00;;;;;;5114334;28;20219;-68
2022/03/24 08:57:49;;;;;;;26.23;14.33;;;8.30;92.40;;;;;;5114167;28;20722;-68
2022/03/24 09:00:17;;;;;;;23.00;12.97;;;8.30;92.50;;;;;;5114034;28;20209;-68
2022/03/24 09:02:46;;;;;;;20.30;12.00;;;8.30;91.60;;;;;;5113807;28;20207;-68
2022/03/24 09:05:14;;;;;;;24.83;13.33;;;8.30;91.50;;;;;;5114249;28;20200;-68
2022/03/24 09:07:41;;;;;;;24.10;12.93;;;8.40;91.50;;;;;;5113774;28;20276;-70
2022/03/24 09:10:10;;;;;;;29.27;15.17;;;8.50;91.70;;;;;;5114047;28;20545;-68
2022/03/24 09:12:39;;;;;;;26.57;15.17;;;8.50;91.80;;;;;;5113955;28;20664;-69
2022/03/24 09:15:09;;;;;;;28.73;15.77;;;8.40;91.60;;;;;;5114157;28;20229;-69
2022/03/24 09:17:39;;;;;;;30.57;15.87;;;8.30;91.80;;;;;;5113734;28;20290;-69
2022/03/24 09:20:10;;;;;;;30.77;15.03;;;8.30;92.20;;;;;;5113911;28;20294;-69
2022/03/24 09:22:37;;;;;;;28.67;15.30;;;8.40;92.00;;;;;;5113537;28;20244;-69
2022/03/24 09:25:06;;;;;;;30.47;13.50;;;8.50;91.60;;;;;;5113555;28;20211;-71
2022/03/24 09:27:33;;;;;;;22.70;13.53;;;8.50;90.80;;;;;;5113740;28;20241;-69
2022/03/24 09:30:00;;;;;;;28.03;13.70;;;8.60;90.70;;;;;;5113454;28;20212;-71
2022/03/24 09:32:28;;;;;;;27.20;14.17;;;8.70;90.80;;;;;;5113306;28;20210;-70
2022/03/24 09:34:56;;;;;;;29.67;15.30;;;8.80;90.30;;;;;;5113007;28;20207;-70
2022/03/24 09:37:23;;;;;;;38.07;18.03;;;8.90;90.10;;;;;;5113289;28;20230;-69
2022/03/24 09:39:51;;;;;;;35.37;18.07;;;8.90;89.20;;;;;;5113148;28;20211;-70
2022/03/24 09:42:21;;;;;;;34.03;19.67;;;8.90;88.90;;;;;;5113147;28;20214;-69
2022/03/24 09:44:49;;;;;;;28.93;16.57;;;8.90;89.40;;;;;;5112919;28;20203;-69
2022/03/24 09:47:16;;;;;;;30.97;16.60;;;8.80;89.00;;;;;;5112976;28;20209;-70
2022/03/24 09:49:45;;;;;;;28.90;16.23;;;8.60;88.90;;;;;;5112686;28;20211;-69
2022/03/24 09:52:13;;;;;;;30.30;16.07;;;8.60;89.40;;;;;;5113340;28;20640;-69
2022/03/24 09:54:43;;;;;;;29.37;16.17;;;8.60;90.20;;;;;;5113087;28;20721;-68
2022/03/24 09:57:11;;;;;;;29.30;17.33;;;8.60;90.30;;;;;;5113478;28;20223;-69
2022/03/24 09:59:38;;;;;;;29.93;17.10;;;8.70;90.20;;;;;;5112754;28;20211;-69
2022/03/24 10:02:07;;;;;;;28.23;16.07;;;8.70;90.00;;;;;;5113129;28;20207;-68
2022/03/24 10:04:47;;;;;;;30.77;17.43;;;8.60;90.20;;;;;;5112509;28;20203;-69
2022/03/24 10:07:14;;;;;;;33.07;17.23;;;8.70;90.60;;;;;;5112772;28;20231;-69
2022/03/24 10:09:44;;;;;;;29.53;16.83;;;8.70;90.10;;;;;;5112591;28;20211;-69
2022/03/24 10:12:20;;;;;;;31.20;16.57;;;8.50;89.10;;;;;;5112670;28;20233;-68
2022/03/24 10:15:00;;;;;;;33.93;18.83;;;8.40;90.00;;;;;;5113035;28;20551;-69
2022/03/24 10:17:27;;;;;;;35.77;18.40;;;8.30;90.80;;;;;;5112357;28;20322;-70
2022/03/24 10:20:05;;;;;;;34.60;16.83;;;8.30;90.70;;;;;;5112814;28;20564;-68
2022/03/24 10:22:32;;;;;;;32.47;17.77;;;8.30;90.10;;;;;;5112766;28;20518;-68
2022/03/24 10:25:00;;;;;;;27.77;17.00;;;8.30;90.00;;;;;;5112671;28;20615;-69
2022/03/24 10:27:29;;;;;;;27.63;15.87;;;8.20;90.00;;;;;;5112376;28;20203;-69
2022/03/24 10:29:57;;;;;;;25.53;14.30;;;8.20;89.60;;;;;;5112382;28;20273;-69
2022/03/24 10:32:29;;;;;;;19.30;12.10;;;8.10;89.10;;;;;;5112340;28;20211;-69
2022/03/24 10:35:10;;;;;;;22.70;13.37;;;8.10;88.90;;;;;;5112299;28;20195;-69
2022/03/24 10:37:37;;;;;;;27.10;12.80;;;8.20;89.20;;;;;;5112096;28;20214;-70
2022/03/24 10:40:07;;;;;;;30.57;13.33;;;8.30;88.20;;;;;;5112608;28;20574;-68
2022/03/24 10:42:36;;;;;;;25.60;13.70;;;8.40;88.10;;;;;;5112470;28;20207;-68
2022/03/24 10:45:15;;;;;;;20.30;12.10;;;8.30;88.30;;;;;;5112118;28;20570;-69
2022/03/24 10:47:45;;;;;;;20.00;10.70;;;8.40;88.70;;;;;;5112564;28;20196;-69
2022/03/24 10:50:28;;;;;;;23.73;12.33;;;8.40;87.70;;;;;;5112393;28;20203;-69
2022/03/24 10:52:58;;;;;;;18.00;10.27;;;8.40;86.80;;;;;;5112209;28;20243;-68
2022/03/24 10:55:54;;;;;;;16.47;9.60;;;8.50;87.70;;;;;;5112518;28;20577;-68
2022/03/24 10:58:28;;;;;;;16.87;8.53;;;8.60;87.90;;;;;;5112162;28;20252;-69
2022/03/24 11:01:00;;;;;;;17.57;9.40;;;8.70;87.00;;;;;;5112157;28;20183;-68
2022/03/24 11:03:27;;;;;;;15.30;8.80;;;8.40;86.80;;;;;;5112281;28;20570;-68
2022/03/24 11:06:10;;;;;;;18.53;9.47;;;8.40;86.60;;;;;;5111974;28;20204;-69
2022/03/24 11:08:37;;;;;;;19.43;10.70;;;8.40;87.30;;;;;;5111814;28;20568;-69
2022/03/24 11:11:10;;;;;;;21.80;10.30;;;8.30;87.10;;;;;;5112227;28;20203;-68
2022/03/24 11:13:52;;;;;;;23.00;11.87;;;8.30;87.40;;;;;;5111993;28;20203;-67
2022/03/24 11:16:21;;;;;;;26.50;11.83;;;8.20;87.50;;;;;;5111991;28;20248;-68
2022/03/24 11:18:49;;;;;;;21.40;10.83;;;8.20;85.80;;;;;;5111893;28;20230;-68
2022/03/24 11:21:23;;;;;;;22.23;10.43;;;8.20;86.50;;;;;;5111741;28;20203;-68
2022/03/24 11:23:53;;;;;;;15.87;10.57;;;8.20;87.20;;;;;;5112223;28;20183;-69
2022/03/24 11:26:21;;;;;;;18.87;11.20;;;8.20;87.80;;;;;;5111775;28;20198;-68
2022/03/24 11:28:50;;;;;;;20.30;10.80;;;8.20;86.90;;;;;;5112091;28;20659;-67
2022/03/24 11:31:18;;;;;;;18.57;11.37;;;8.30;86.70;;;;;;5111923;28;20203;-68
2022/03/24 11:33:47;;;;;;;19.23;9.60;;;8.20;87.60;;;;;;5111618;28;20204;-68
2022/03/24 11:36:16;;;;;;;19.03;10.00;;;8.20;86.10;;;;;;5111861;28;20336;-69
2022/03/24 11:38:48;;;;;;;17.20;10.57;;;8.20;85.40;;;;;;5112049;28;20597;-68
2022/03/24 11:41:23;;;;;;;22.77;12.27;;;8.10;84.90;;;;;;5111593;28;20184;-68
2022/03/24 11:43:53;;;;;;;22.63;11.90;;;8.10;84.90;;;;;;5112090;28;20202;-69
2022/03/24 11:46:32;;;;;;;23.90;13.23;;;8.20;85.60;;;;;;5111623;28;20207;-68
2022/03/24 11:49:18;;;;;;;22.70;13.13;;;8.20;85.30;;;;;;5112072;28;20238;-69
2022/03/24 11:51:47;;;;;;;20.80;12.73;;;8.10;85.50;;;;;;5111179;28;20664;-68
2022/03/24 11:54:26;;;;;;;19.30;12.60;;;8.10;85.60;;;;;;5111347;28;20231;-69
2022/03/24 11:57:26;;;;;;;27.10;14.10;;;8.10;85.70;;;;;;5112538;28;20195;-68
2022/03/24 12:00:40;;;;;;;27.00;15.23;;;8.20;85.00;;;;;;5115323;28;20183;-68
2022/03/24 12:03:42;;;;;;;25.43;15.87;;;8.20;85.30;;;;;;5115257;28;20361;-68
2022/03/24 12:06:10;;;;;;;20.80;13.50;;;8.30;85.80;;;;;;5115025;28;20251;-68
2022/03/24 12:08:52;;;;;;;22.63;13.10;;;8.40;86.20;;;;;;5115013;28;20278;-68
2022/03/24 12:11:45;;;;;;;23.87;14.37;;;8.40;86.90;;;;;;5114853;28;20199;-68
2022/03/24 12:14:16;;;;;;;25.57;14.97;;;8.40;86.90;;;;;;5106541;27;20203;-69
2022/03/24 12:16:44;;;;;;;22.63;13.90;;;8.20;86.90;;;;;;5115281;28;20674;-69
2022/03/24 12:19:41;;;;;;;23.77;12.63;;;8.10;87.10;;;;;;5114624;28;20223;-68
2022/03/24 12:22:35;;;;;;;21.00;13.50;;;7.90;86.70;;;;;;5114732;28;20200;-68
2022/03/24 12:25:32;;;;;;;22.77;13.73;;;7.60;87.40;;;;;;5114766;28;20209;-70
2022/03/24 12:28:16;;;;;;;25.30;14.37;;;7.50;89.00;;;;;;5115482;28;20565;-69
2022/03/24 12:30:52;;;;;;;25.97;13.10;;;7.40;89.20;;;;;;5115098;28;20188;-68
2022/03/24 12:33:31;;;;;;;28.40;14.17;;;7.50;88.50;;;;;;5114553;28;20187;-68
2022/03/24 12:35:58;;;;;;;24.50;14.90;;;7.60;87.30;;;;;;5114719;28;20183;-71
2022/03/24 12:38:32;;;;;;;27.27;15.10;;;7.70;87.00;;;;;;5114730;28;20238;-67
2022/03/24 12:41:21;;;;;;;31.53;16.93;;;7.80;86.40;;;;;;5114517;28;20195;-69
2022/03/24 12:43:55;;;;;;;27.37;17.23;;;7.80;86.00;;;;;;5114445;28;20283;-69
2022/03/24 12:46:25;;;;;;;27.00;15.80;;;7.80;86.50;;;;;;5114171;28;20192;-68
2022/03/24 12:48:54;;;;;;;28.00;16.20;;;7.80;84.80;;;;;;5114417;28;20188;-67